sensor_id;sensor_type;location;lat;lon;timestamp;P1;durP1;ratioP1;P2;durP2;ratioP2
54935;SDS011;40838;50.676;7.838;2022-10-31T00:00:29;25.55;;;7.68;;
54935;SDS011;40838;50.676;7.838;2022-10-31T00:02:56;13.38;;;6.80;;
54935;SDS011;40838;50.676;7.838;2022-10-31T00:05:23;15.57;;;7.28;;
54935;SDS011;40838;50.676;7.838;2022-10-31T00:07:53;16.80;;;7.03;;
54935;SDS011;40838;50.676;7.838;2022-10-31T00:10:19;15.50;;;6.90;;
54935;SDS011;40838;50.676;7.838;2022-10-31T00:12:46;18.33;;;7.15;;
54935;SDS011;40838;50.676;7.838;2022-10-31T00:15:13;26.13;;;8.77;;
54935;SDS011;40838;50.676;7.838;2022-10-31T00:17:40;17.88;;;7.20;;
54935;SDS011;40838;50.676;7.838;2022-10-31T00:20:07;17.73;;;6.63;;
54935;SDS011;40838;50.676;7.838;2022-10-31T00:22:36;12.57;;;6.47;;
54935;SDS011;40838;50.676;7.838;2022-10-31T00:25:04;17.20;;;6.57;;
54935;SDS011;40838;50.676;7.838;2022-10-31T00:27:31;13.35;;;6.82;;
54935;SDS011;40838;50.676;7.838;2022-10-31T00:30:00;19.02;;;7.60;;
54935;SDS011;40838;50.676;7.838;2022-10-31T00:32:29;23.48;;;7.80;;
54935;SDS011;40838;50.676;7.838;2022-10-31T00:34:56;17.88;;;7.18;;
54935;SDS011;40838;50.676;7.838;2022-10-31T00:37:23;27.92;;;8.55;;
54935;SDS011;40838;50.676;7.838;2022-10-31T00:39:50;21.55;;;8.60;;
54935;SDS011;40838;50.676;7.838;2022-10-31T00:42:28;20.23;;;7.03;;
54935;SDS011;40838;50.676;7.838;2022-10-31T00:44:57;18.92;;;7.95;;
54935;SDS011;40838;50.676;7.838;2022-10-31T00:47:24;18.45;;;7.75;;
54935;SDS011;40838;50.676;7.838;2022-10-31T00:49:50;17.40;;;6.72;;
54935;SDS011;40838;50.676;7.838;2022-10-31T00:52:17;18.85;;;6.88;;
54935;SDS011;40838;50.676;7.838;2022-10-31T00:54:44;12.15;;;6.15;;
54935;SDS011;40838;50.676;7.838;2022-10-31T00:57:17;13.50;;;6.40;;
54935;SDS011;40838;50.676;7.838;2022-10-31T00:59:45;16.13;;;5.90;;
54935;SDS011;40838;50.676;7.838;2022-10-31T01:02:12;16.38;;;6.55;;
54935;SDS011;40838;50.676;7.838;2022-10-31T01:04:39;17.40;;;6.43;;
54935;SDS011;40838;50.676;7.838;2022-10-31T01:07:05;13.80;;;5.95;;
54935;SDS011;40838;50.676;7.838;2022-10-31T01:09:32;15.07;;;6.75;;
54935;SDS011;40838;50.676;7.838;2022-10-31T01:11:59;20.13;;;7.45;;
54935;SDS011;40838;50.676;7.838;2022-10-31T01:14:26;28.15;;;7.55;;
54935;SDS011;40838;50.676;7.838;2022-10-31T01:16:57;19.60;;;7.10;;
54935;SDS011;40838;50.676;7.838;2022-10-31T01:19:24;15.65;;;7.15;;
54935;SDS011;40838;50.676;7.838;2022-10-31T01:21:54;15.75;;;6.78;;
54935;SDS011;40838;50.676;7.838;2022-10-31T01:24:21;23.67;;;7.93;;
54935;SDS011;40838;50.676;7.838;2022-10-31T01:26:48;17.63;;;7.28;;
54935;SDS011;40838;50.676;7.838;2022-10-31T01:29:15;16.38;;;6.55;;
54935;SDS011;40838;50.676;7.838;2022-10-31T01:31:42;16.25;;;6.32;;
54935;SDS011;40838;50.676;7.838;2022-10-31T01:34:10;14.23;;;6.70;;
54935;SDS011;40838;50.676;7.838;2022-10-31T01:36:39;14.73;;;7.70;;
54935;SDS011;40838;50.676;7.838;2022-10-31T01:39:07;23.70;;;7.75;;
54935;SDS011;40838;50.676;7.838;2022-10-31T01:41:36;14.45;;;7.18;;
54935;SDS011;40838;50.676;7.838;2022-10-31T01:47:05;13.60;;;6.72;;
54935;SDS011;40838;50.676;7.838;2022-10-31T01:49:36;17.63;;;7.25;;
54935;SDS011;40838;50.676;7.838;2022-10-31T01:52:09;19.60;;;7.47;;
54935;SDS011;40838;50.676;7.838;2022-10-31T01:54:42;24.48;;;7.50;;
54935;SDS011;40838;50.676;7.838;2022-10-31T01:57:16;13.77;;;7.03;;
54935;SDS011;40838;50.676;7.838;2022-10-31T01:59:46;13.13;;;6.93;;
54935;SDS011;40838;50.676;7.838;2022-10-31T02:02:16;20.92;;;7.95;;
54935;SDS011;40838;50.676;7.838;2022-10-31T02:04:48;23.08;;;7.53;;
54935;SDS011;40838;50.676;7.838;2022-10-31T02:07:18;16.92;;;7.47;;
54935;SDS011;40838;50.676;7.838;2022-10-31T02:09:50;19.23;;;6.72;;
54935;SDS011;40838;50.676;7.838;2022-10-31T02:12:19;18.45;;;7.47;;
54935;SDS011;40838;50.676;7.838;2022-10-31T02:14:47;16.67;;;7.18;;
54935;SDS011;40838;50.676;7.838;2022-10-31T02:17:13;20.02;;;7.13;;
54935;SDS011;40838;50.676;7.838;2022-10-31T02:19:45;12.95;;;6.72;;
54935;SDS011;40838;50.676;7.838;2022-10-31T02:22:20;24.80;;;7.20;;
54935;SDS011;40838;50.676;7.838;2022-10-31T02:27:37;21.77;;;6.97;;
54935;SDS011;40838;50.676;7.838;2022-10-31T02:30:18;15.93;;;7.45;;
54935;SDS011;40838;50.676;7.838;2022-10-31T02:32:54;20.38;;;7.97;;
54935;SDS011;40838;50.676;7.838;2022-10-31T02:35:45;18.33;;;7.63;;
54935;SDS011;40838;50.676;7.838;2022-10-31T02:38:23;13.60;;;6.90;;
54935;SDS011;40838;50.676;7.838;2022-10-31T02:41:00;13.15;;;6.80;;
54935;SDS011;40838;50.676;7.838;2022-10-31T02:46:23;20.40;;;6.72;;
54935;SDS011;40838;50.676;7.838;2022-10-31T02:48:56;16.20;;;7.60;;
54935;SDS011;40838;50.676;7.838;2022-10-31T02:51:32;11.75;;;6.72;;
54935;SDS011;40838;50.676;7.838;2022-10-31T02:53:59;17.42;;;6.82;;
54935;SDS011;40838;50.676;7.838;2022-10-31T02:56:26;20.23;;;6.50;;
54935;SDS011;40838;50.676;7.838;2022-10-31T02:58:55;16.02;;;7.03;;
54935;SDS011;40838;50.676;7.838;2022-10-31T03:01:40;14.95;;;7.13;;
54935;SDS011;40838;50.676;7.838;2022-10-31T03:07:30;15.38;;;7.10;;
54935;SDS011;40838;50.676;7.838;2022-10-31T03:10:04;14.15;;;6.60;;
54935;SDS011;40838;50.676;7.838;2022-10-31T03:12:38;14.70;;;7.40;;
54935;SDS011;40838;50.676;7.838;2022-10-31T03:15:10;13.75;;;6.90;;
54935;SDS011;40838;50.676;7.838;2022-10-31T03:17:45;26.02;;;8.30;;
54935;SDS011;40838;50.676;7.838;2022-10-31T03:20:24;15.35;;;6.88;;
54935;SDS011;40838;50.676;7.838;2022-10-31T03:22:55;18.48;;;7.70;;
54935;SDS011;40838;50.676;7.838;2022-10-31T03:25:24;15.57;;;8.55;;
54935;SDS011;40838;50.676;7.838;2022-10-31T03:27:55;17.05;;;7.38;;
54935;SDS011;40838;50.676;7.838;2022-10-31T03:30:24;19.85;;;6.72;;
54935;SDS011;40838;50.676;7.838;2022-10-31T03:32:56;15.02;;;7.13;;
54935;SDS011;40838;50.676;7.838;2022-10-31T03:35:29;20.13;;;8.27;;
54935;SDS011;40838;50.676;7.838;2022-10-31T03:38:02;16.42;;;7.60;;
54935;SDS011;40838;50.676;7.838;2022-10-31T03:40:32;18.20;;;7.47;;
54935;SDS011;40838;50.676;7.838;2022-10-31T03:43:03;26.95;;;8.07;;
54935;SDS011;40838;50.676;7.838;2022-10-31T03:45:35;20.52;;;7.90;;
54935;SDS011;40838;50.676;7.838;2022-10-31T03:48:07;15.93;;;7.15;;
54935;SDS011;40838;50.676;7.838;2022-10-31T03:50:37;15.85;;;7.38;;
54935;SDS011;40838;50.676;7.838;2022-10-31T03:53:12;15.30;;;7.15;;
54935;SDS011;40838;50.676;7.838;2022-10-31T03:55:47;16.10;;;7.93;;
54935;SDS011;40838;50.676;7.838;2022-10-31T03:58:18;15.70;;;7.47;;
54935;SDS011;40838;50.676;7.838;2022-10-31T04:00:48;14.05;;;7.03;;
54935;SDS011;40838;50.676;7.838;2022-10-31T04:03:18;17.63;;;7.28;;
54935;SDS011;40838;50.676;7.838;2022-10-31T04:05:52;16.98;;;7.32;;
54935;SDS011;40838;50.676;7.838;2022-10-31T04:08:23;16.10;;;7.50;;
54935;SDS011;40838;50.676;7.838;2022-10-31T04:10:54;25.33;;;7.93;;
54935;SDS011;40838;50.676;7.838;2022-10-31T04:13:25;22.30;;;7.93;;
54935;SDS011;40838;50.676;7.838;2022-10-31T04:16:07;15.15;;;6.78;;
54935;SDS011;40838;50.676;7.838;2022-10-31T04:18:37;13.05;;;7.05;;
54935;SDS011;40838;50.676;7.838;2022-10-31T04:21:07;16.25;;;8.10;;
54935;SDS011;40838;50.676;7.838;2022-10-31T04:23:35;18.45;;;7.78;;
54935;SDS011;40838;50.676;7.838;2022-10-31T04:26:23;25.23;;;8.82;;
54935;SDS011;40838;50.676;7.838;2022-10-31T04:28:50;20.88;;;9.48;;
54935;SDS011;40838;50.676;7.838;2022-10-31T04:31:17;26.35;;;9.45;;
54935;SDS011;40838;50.676;7.838;2022-10-31T04:33:47;18.50;;;9.38;;
54935;SDS011;40838;50.676;7.838;2022-10-31T04:36:16;23.65;;;9.38;;
54935;SDS011;40838;50.676;7.838;2022-10-31T04:38:42;20.15;;;9.98;;
54935;SDS011;40838;50.676;7.838;2022-10-31T04:41:23;21.05;;;8.85;;
54935;SDS011;40838;50.676;7.838;2022-10-31T04:43:53;18.75;;;8.20;;
54935;SDS011;40838;50.676;7.838;2022-10-31T04:46:20;15.88;;;7.47;;
54935;SDS011;40838;50.676;7.838;2022-10-31T04:48:47;18.70;;;8.50;;
54935;SDS011;40838;50.676;7.838;2022-10-31T04:51:17;27.05;;;8.02;;
54935;SDS011;40838;50.676;7.838;2022-10-31T04:53:44;16.90;;;7.15;;
54935;SDS011;40838;50.676;7.838;2022-10-31T04:56:31;19.55;;;7.90;;
54935;SDS011;40838;50.676;7.838;2022-10-31T04:59:00;14.55;;;7.63;;
54935;SDS011;40838;50.676;7.838;2022-10-31T05:01:37;17.58;;;7.60;;
54935;SDS011;40838;50.676;7.838;2022-10-31T05:04:04;18.10;;;8.27;;
54935;SDS011;40838;50.676;7.838;2022-10-31T05:06:32;19.60;;;7.72;;
54935;SDS011;40838;50.676;7.838;2022-10-31T05:08:59;17.08;;;8.40;;
54935;SDS011;40838;50.676;7.838;2022-10-31T05:11:27;25.08;;;10.07;;
54935;SDS011;40838;50.676;7.838;2022-10-31T05:14:22;21.17;;;9.20;;
54935;SDS011;40838;50.676;7.838;2022-10-31T05:17:21;23.05;;;10.23;;
54935;SDS011;40838;50.676;7.838;2022-10-31T05:20:11;19.10;;;8.13;;
54935;SDS011;40838;50.676;7.838;2022-10-31T05:22:45;26.80;;;11.90;;
54935;SDS011;40838;50.676;7.838;2022-10-31T05:25:13;23.88;;;9.43;;
54935;SDS011;40838;50.676;7.838;2022-10-31T05:27:40;18.55;;;9.60;;
54935;SDS011;40838;50.676;7.838;2022-10-31T05:30:10;21.80;;;8.02;;
54935;SDS011;40838;50.676;7.838;2022-10-31T05:32:41;19.92;;;7.97;;
54935;SDS011;40838;50.676;7.838;2022-10-31T05:35:29;17.48;;;8.50;;
54935;SDS011;40838;50.676;7.838;2022-10-31T05:38:16;19.98;;;8.02;;
54935;SDS011;40838;50.676;7.838;2022-10-31T05:40:44;15.77;;;8.18;;
54935;SDS011;40838;50.676;7.838;2022-10-31T05:43:11;23.50;;;9.35;;
54935;SDS011;40838;50.676;7.838;2022-10-31T05:45:39;17.15;;;8.52;;
54935;SDS011;40838;50.676;7.838;2022-10-31T05:51:09;24.02;;;10.35;;
54935;SDS011;40838;50.676;7.838;2022-10-31T05:53:43;23.55;;;9.50;;
54935;SDS011;40838;50.676;7.838;2022-10-31T05:56:12;27.77;;;10.00;;
54935;SDS011;40838;50.676;7.838;2022-10-31T05:58:39;22.88;;;10.27;;
54935;SDS011;40838;50.676;7.838;2022-10-31T06:01:08;23.38;;;10.32;;
54935;SDS011;40838;50.676;7.838;2022-10-31T06:03:37;26.92;;;10.90;;
54935;SDS011;40838;50.676;7.838;2022-10-31T06:06:07;26.20;;;11.02;;
54935;SDS011;40838;50.676;7.838;2022-10-31T06:08:41;29.63;;;11.48;;
54935;SDS011;40838;50.676;7.838;2022-10-31T06:11:13;26.80;;;12.98;;
54935;SDS011;40838;50.676;7.838;2022-10-31T06:13:59;33.72;;;13.02;;
54935;SDS011;40838;50.676;7.838;2022-10-31T06:16:50;35.78;;;14.90;;
54935;SDS011;40838;50.676;7.838;2022-10-31T06:19:35;39.95;;;14.77;;
54935;SDS011;40838;50.676;7.838;2022-10-31T06:22:03;35.70;;;14.52;;
54935;SDS011;40838;50.676;7.838;2022-10-31T06:24:33;39.90;;;16.40;;
54935;SDS011;40838;50.676;7.838;2022-10-31T06:27:24;40.10;;;16.63;;
54935;SDS011;40838;50.676;7.838;2022-10-31T06:29:52;58.53;;;18.75;;
54935;SDS011;40838;50.676;7.838;2022-10-31T06:32:27;39.60;;;15.43;;
54935;SDS011;40838;50.676;7.838;2022-10-31T06:34:53;29.15;;;14.40;;
54935;SDS011;40838;50.676;7.838;2022-10-31T06:37:21;38.45;;;16.02;;
54935;SDS011;40838;50.676;7.838;2022-10-31T06:39:51;37.30;;;13.23;;
54935;SDS011;40838;50.676;7.838;2022-10-31T06:42:21;33.58;;;14.88;;
54935;SDS011;40838;50.676;7.838;2022-10-31T06:44:48;37.20;;;15.27;;
54935;SDS011;40838;50.676;7.838;2022-10-31T06:47:34;34.67;;;16.40;;
54935;SDS011;40838;50.676;7.838;2022-10-31T06:50:07;31.40;;;14.32;;
54935;SDS011;40838;50.676;7.838;2022-10-31T06:52:34;32.90;;;15.25;;
54935;SDS011;40838;50.676;7.838;2022-10-31T06:55:05;37.13;;;15.45;;
54935;SDS011;40838;50.676;7.838;2022-10-31T06:57:33;30.98;;;13.63;;
54935;SDS011;40838;50.676;7.838;2022-10-31T07:00:00;28.35;;;12.02;;
54935;SDS011;40838;50.676;7.838;2022-10-31T07:02:39;26.50;;;12.00;;
54935;SDS011;40838;50.676;7.838;2022-10-31T07:05:06;18.58;;;10.15;;
54935;SDS011;40838;50.676;7.838;2022-10-31T07:07:33;27.45;;;11.77;;
54935;SDS011;40838;50.676;7.838;2022-10-31T07:10:02;24.63;;;12.48;;
54935;SDS011;40838;50.676;7.838;2022-10-31T07:12:44;21.85;;;11.05;;
54935;SDS011;40838;50.676;7.838;2022-10-31T07:15:11;26.95;;;10.95;;
54935;SDS011;40838;50.676;7.838;2022-10-31T07:17:38;28.40;;;11.30;;
54935;SDS011;40838;50.676;7.838;2022-10-31T07:20:07;26.23;;;11.15;;
54935;SDS011;40838;50.676;7.838;2022-10-31T07:22:36;22.98;;;9.93;;
54935;SDS011;40838;50.676;7.838;2022-10-31T07:25:06;25.38;;;11.43;;
54935;SDS011;40838;50.676;7.838;2022-10-31T07:27:53;21.40;;;10.90;;
54935;SDS011;40838;50.676;7.838;2022-10-31T07:30:20;27.73;;;10.75;;
54935;SDS011;40838;50.676;7.838;2022-10-31T07:32:50;19.15;;;8.90;;
54935;SDS011;40838;50.676;7.838;2022-10-31T07:35:22;25.98;;;9.75;;
54935;SDS011;40838;50.676;7.838;2022-10-31T07:38:08;21.33;;;10.07;;
54935;SDS011;40838;50.676;7.838;2022-10-31T07:40:41;27.83;;;9.02;;
54935;SDS011;40838;50.676;7.838;2022-10-31T07:43:11;20.90;;;8.68;;
54935;SDS011;40838;50.676;7.838;2022-10-31T07:46:00;20.88;;;9.20;;
54935;SDS011;40838;50.676;7.838;2022-10-31T07:48:36;19.98;;;8.32;;
54935;SDS011;40838;50.676;7.838;2022-10-31T07:51:22;18.15;;;9.23;;
54935;SDS011;40838;50.676;7.838;2022-10-31T07:54:08;23.85;;;8.25;;
54935;SDS011;40838;50.676;7.838;2022-10-31T07:56:36;16.50;;;7.45;;
54935;SDS011;40838;50.676;7.838;2022-10-31T07:59:06;19.08;;;8.40;;
54935;SDS011;40838;50.676;7.838;2022-10-31T08:01:33;16.90;;;7.15;;
54935;SDS011;40838;50.676;7.838;2022-10-31T08:04:20;18.23;;;8.30;;
54935;SDS011;40838;50.676;7.838;2022-10-31T08:07:06;20.15;;;7.75;;
54935;SDS011;40838;50.676;7.838;2022-10-31T08:09:36;21.63;;;8.07;;
54935;SDS011;40838;50.676;7.838;2022-10-31T08:12:13;16.27;;;7.10;;
54935;SDS011;40838;50.676;7.838;2022-10-31T08:14:41;17.10;;;7.90;;
54935;SDS011;40838;50.676;7.838;2022-10-31T08:17:10;22.05;;;7.68;;
54935;SDS011;40838;50.676;7.838;2022-10-31T08:19:48;21.88;;;8.60;;
54935;SDS011;40838;50.676;7.838;2022-10-31T08:22:15;13.38;;;7.05;;
54935;SDS011;40838;50.676;7.838;2022-10-31T08:24:43;20.77;;;7.05;;
54935;SDS011;40838;50.676;7.838;2022-10-31T08:27:11;13.85;;;6.82;;
54935;SDS011;40838;50.676;7.838;2022-10-31T08:29:38;13.40;;;6.82;;
54935;SDS011;40838;50.676;7.838;2022-10-31T08:32:07;15.65;;;7.03;;
54935;SDS011;40838;50.676;7.838;2022-10-31T08:34:53;15.13;;;7.30;;
54935;SDS011;40838;50.676;7.838;2022-10-31T08:37:52;14.68;;;7.07;;
54935;SDS011;40838;50.676;7.838;2022-10-31T08:40:25;14.35;;;6.85;;
54935;SDS011;40838;50.676;7.838;2022-10-31T08:42:57;14.30;;;7.32;;
54935;SDS011;40838;50.676;7.838;2022-10-31T08:45:35;13.65;;;6.18;;
54935;SDS011;40838;50.676;7.838;2022-10-31T08:48:08;12.93;;;6.07;;
54935;SDS011;40838;50.676;7.838;2022-10-31T08:50:37;14.93;;;6.82;;
54935;SDS011;40838;50.676;7.838;2022-10-31T08:53:05;16.25;;;6.18;;
54935;SDS011;40838;50.676;7.838;2022-10-31T08:55:33;17.73;;;6.60;;
54935;SDS011;40838;50.676;7.838;2022-10-31T08:58:04;18.70;;;7.30;;
54935;SDS011;40838;50.676;7.838;2022-10-31T09:00:44;18.42;;;9.13;;
54935;SDS011;40838;50.676;7.838;2022-10-31T09:03:17;19.85;;;7.50;;
54935;SDS011;40838;50.676;7.838;2022-10-31T09:05:45;14.27;;;7.18;;
54935;SDS011;40838;50.676;7.838;2022-10-31T09:08:13;15.45;;;7.25;;
54935;SDS011;40838;50.676;7.838;2022-10-31T09:10:42;10.98;;;6.43;;
54935;SDS011;40838;50.676;7.838;2022-10-31T09:13:13;16.92;;;6.68;;
54935;SDS011;40838;50.676;7.838;2022-10-31T09:16:00;14.40;;;9.07;;
54935;SDS011;40838;50.676;7.838;2022-10-31T09:18:37;20.27;;;7.97;;
54935;SDS011;40838;50.676;7.838;2022-10-31T09:21:04;20.25;;;6.15;;
54935;SDS011;40838;50.676;7.838;2022-10-31T09:23:31;13.80;;;5.32;;
54935;SDS011;40838;50.676;7.838;2022-10-31T09:26:00;19.35;;;5.88;;
54935;SDS011;40838;50.676;7.838;2022-10-31T09:28:28;12.02;;;6.10;;
54935;SDS011;40838;50.676;7.838;2022-10-31T09:31:01;12.02;;;5.57;;
54935;SDS011;40838;50.676;7.838;2022-10-31T09:33:50;12.18;;;5.30;;
54935;SDS011;40838;50.676;7.838;2022-10-31T09:36:41;11.15;;;4.63;;
54935;SDS011;40838;50.676;7.838;2022-10-31T09:39:27;15.65;;;5.47;;
54935;SDS011;40838;50.676;7.838;2022-10-31T09:42:08;10.77;;;4.03;;
54935;SDS011;40838;50.676;7.838;2022-10-31T09:44:52;9.40;;;3.63;;
54935;SDS011;40838;50.676;7.838;2022-10-31T09:47:39;16.27;;;4.28;;
54935;SDS011;40838;50.676;7.838;2022-10-31T09:50:31;14.35;;;4.88;;
54935;SDS011;40838;50.676;7.838;2022-10-31T09:53:37;11.43;;;4.35;;
54935;SDS011;40838;50.676;7.838;2022-10-31T09:56:24;11.77;;;4.33;;
54935;SDS011;40838;50.676;7.838;2022-10-31T09:59:11;8.98;;;3.58;;
54935;SDS011;40838;50.676;7.838;2022-10-31T10:01:59;15.95;;;4.53;;
54935;SDS011;40838;50.676;7.838;2022-10-31T10:04:33;13.75;;;4.00;;
54935;SDS011;40838;50.676;7.838;2022-10-31T10:10:15;10.57;;;4.13;;
54935;SDS011;40838;50.676;7.838;2022-10-31T10:13:35;13.27;;;3.88;;
54935;SDS011;40838;50.676;7.838;2022-10-31T10:16:16;15.05;;;3.60;;
54935;SDS011;40838;50.676;7.838;2022-10-31T10:18:57;9.77;;;3.33;;
54935;SDS011;40838;50.676;7.838;2022-10-31T10:21:41;7.43;;;3.35;;
54935;SDS011;40838;50.676;7.838;2022-10-31T10:27:26;12.05;;;4.03;;
54935;SDS011;40838;50.676;7.838;2022-10-31T10:30:07;11.15;;;3.80;;
54935;SDS011;40838;50.676;7.838;2022-10-31T10:32:43;8.57;;;3.72;;
54935;SDS011;40838;50.676;7.838;2022-10-31T10:35:19;10.25;;;3.58;;
54935;SDS011;40838;50.676;7.838;2022-10-31T10:37:51;12.27;;;3.42;;
54935;SDS011;40838;50.676;7.838;2022-10-31T10:40:25;9.30;;;3.83;;
54935;SDS011;40838;50.676;7.838;2022-10-31T10:43:10;11.75;;;3.60;;
54935;SDS011;40838;50.676;7.838;2022-10-31T10:49:26;8.73;;;3.22;;
54935;SDS011;40838;50.676;7.838;2022-10-31T10:52:44;15.43;;;3.13;;
54935;SDS011;40838;50.676;7.838;2022-10-31T10:55:06;9.00;;;3.63;;
54935;SDS011;40838;50.676;7.838;2022-10-31T10:57:54;10.50;;;3.40;;
54935;SDS011;40838;50.676;7.838;2022-10-31T11:00:29;13.02;;;4.28;;
54935;SDS011;40838;50.676;7.838;2022-10-31T11:03:16;12.20;;;3.90;;
54935;SDS011;40838;50.676;7.838;2022-10-31T11:05:44;8.93;;;3.17;;
54935;SDS011;40838;50.676;7.838;2022-10-31T11:08:22;11.82;;;4.20;;
54935;SDS011;40838;50.676;7.838;2022-10-31T11:11:02;11.98;;;3.80;;
54935;SDS011;40838;50.676;7.838;2022-10-31T11:13:34;10.60;;;3.47;;
54935;SDS011;40838;50.676;7.838;2022-10-31T11:16:05;9.30;;;3.55;;
54935;SDS011;40838;50.676;7.838;2022-10-31T11:18:37;11.25;;;3.95;;
54935;SDS011;40838;50.676;7.838;2022-10-31T11:21:19;8.00;;;3.38;;
54935;SDS011;40838;50.676;7.838;2022-10-31T11:23:57;12.27;;;3.45;;
54935;SDS011;40838;50.676;7.838;2022-10-31T11:34:13;8.10;;;3.15;;
54935;SDS011;40838;50.676;7.838;2022-10-31T11:36:54;14.95;;;4.30;;
54935;SDS011;40838;50.676;7.838;2022-10-31T11:39:38;11.27;;;4.18;;
54935;SDS011;40838;50.676;7.838;2022-10-31T11:43:33;11.27;;;3.38;;
54935;SDS011;40838;50.676;7.838;2022-10-31T11:46:40;11.98;;;3.70;;
54935;SDS011;40838;50.676;7.838;2022-10-31T11:49:13;13.15;;;3.95;;
54935;SDS011;40838;50.676;7.838;2022-10-31T11:51:46;12.05;;;3.58;;
54935;SDS011;40838;50.676;7.838;2022-10-31T11:54:18;14.85;;;3.50;;
54935;SDS011;40838;50.676;7.838;2022-10-31T11:56:48;13.90;;;4.40;;
54935;SDS011;40838;50.676;7.838;2022-10-31T11:59:17;13.35;;;4.13;;
54935;SDS011;40838;50.676;7.838;2022-10-31T12:01:49;16.63;;;4.05;;
54935;SDS011;40838;50.676;7.838;2022-10-31T12:04:24;13.73;;;3.35;;
54935;SDS011;40838;50.676;7.838;2022-10-31T12:07:05;13.50;;;4.32;;
54935;SDS011;40838;50.676;7.838;2022-10-31T12:09:33;13.70;;;4.05;;
54935;SDS011;40838;50.676;7.838;2022-10-31T12:12:07;14.95;;;3.53;;
54935;SDS011;40838;50.676;7.838;2022-10-31T12:14:44;9.43;;;3.40;;
54935;SDS011;40838;50.676;7.838;2022-10-31T12:17:23;12.43;;;3.65;;
54935;SDS011;40838;50.676;7.838;2022-10-31T12:20:00;15.32;;;3.00;;
54935;SDS011;40838;50.676;7.838;2022-10-31T12:22:40;9.30;;;3.60;;
54935;SDS011;40838;50.676;7.838;2022-10-31T12:25:15;14.98;;;3.58;;
54935;SDS011;40838;50.676;7.838;2022-10-31T12:27:58;17.00;;;3.65;;
54935;SDS011;40838;50.676;7.838;2022-10-31T12:30:34;18.27;;;3.60;;
54935;SDS011;40838;50.676;7.838;2022-10-31T12:33:14;14.35;;;3.67;;
54935;SDS011;40838;50.676;7.838;2022-10-31T12:35:54;10.30;;;2.95;;
54935;SDS011;40838;50.676;7.838;2022-10-31T12:38:40;13.65;;;3.85;;
54935;SDS011;40838;50.676;7.838;2022-10-31T12:41:20;17.73;;;3.77;;
54935;SDS011;40838;50.676;7.838;2022-10-31T12:43:56;9.48;;;3.08;;
54935;SDS011;40838;50.676;7.838;2022-10-31T12:46:31;9.35;;;3.28;;
54935;SDS011;40838;50.676;7.838;2022-10-31T12:49:25;11.38;;;4.25;;
54935;SDS011;40838;50.676;7.838;2022-10-31T12:52:06;9.07;;;3.30;;
54935;SDS011;40838;50.676;7.838;2022-10-31T12:57:23;11.55;;;3.70;;
54935;SDS011;40838;50.676;7.838;2022-10-31T12:59:57;18.93;;;3.97;;
54935;SDS011;40838;50.676;7.838;2022-10-31T13:02:29;15.32;;;3.65;;
54935;SDS011;40838;50.676;7.838;2022-10-31T13:05:01;20.77;;;4.03;;
54935;SDS011;40838;50.676;7.838;2022-10-31T13:07:34;13.20;;;3.88;;
54935;SDS011;40838;50.676;7.838;2022-10-31T13:10:05;16.17;;;3.75;;
54935;SDS011;40838;50.676;7.838;2022-10-31T13:12:47;13.77;;;4.20;;
54935;SDS011;40838;50.676;7.838;2022-10-31T13:15:17;14.27;;;3.92;;
54935;SDS011;40838;50.676;7.838;2022-10-31T13:17:47;12.30;;;3.65;;
54935;SDS011;40838;50.676;7.838;2022-10-31T13:20:22;13.93;;;3.95;;
54935;SDS011;40838;50.676;7.838;2022-10-31T13:25:23;15.60;;;4.03;;
54935;SDS011;40838;50.676;7.838;2022-10-31T13:27:53;13.05;;;3.80;;
54935;SDS011;40838;50.676;7.838;2022-10-31T13:30:26;10.07;;;3.88;;
54935;SDS011;40838;50.676;7.838;2022-10-31T13:32:59;15.13;;;3.13;;
54935;SDS011;40838;50.676;7.838;2022-10-31T13:35:32;13.95;;;3.72;;
54935;SDS011;40838;50.676;7.838;2022-10-31T13:38:14;14.43;;;4.32;;
54935;SDS011;40838;50.676;7.838;2022-10-31T13:40:48;17.95;;;4.00;;
54935;SDS011;40838;50.676;7.838;2022-10-31T13:45:56;15.07;;;4.13;;
54935;SDS011;40838;50.676;7.838;2022-10-31T13:48:37;14.52;;;4.00;;
54935;SDS011;40838;50.676;7.838;2022-10-31T13:51:08;18.33;;;3.85;;
54935;SDS011;40838;50.676;7.838;2022-10-31T13:53:43;9.32;;;3.85;;
54935;SDS011;40838;50.676;7.838;2022-10-31T13:56:23;9.13;;;4.10;;
54935;SDS011;40838;50.676;7.838;2022-10-31T13:59:16;13.60;;;3.90;;
54935;SDS011;40838;50.676;7.838;2022-10-31T14:01:46;11.18;;;3.88;;
54935;SDS011;40838;50.676;7.838;2022-10-31T14:04:17;8.98;;;4.07;;
54935;SDS011;40838;50.676;7.838;2022-10-31T14:07:04;13.90;;;3.90;;
54935;SDS011;40838;50.676;7.838;2022-10-31T14:09:36;14.25;;;4.00;;
54935;SDS011;40838;50.676;7.838;2022-10-31T14:12:06;11.20;;;3.90;;
54935;SDS011;40838;50.676;7.838;2022-10-31T14:14:43;23.13;;;4.95;;
54935;SDS011;40838;50.676;7.838;2022-10-31T14:17:22;11.85;;;3.83;;
54935;SDS011;40838;50.676;7.838;2022-10-31T14:19:56;12.55;;;3.35;;
54935;SDS011;40838;50.676;7.838;2022-10-31T14:22:30;16.67;;;3.55;;
54935;SDS011;40838;50.676;7.838;2022-10-31T14:24:59;11.13;;;3.90;;
54935;SDS011;40838;50.676;7.838;2022-10-31T14:27:34;17.83;;;3.88;;
54935;SDS011;40838;50.676;7.838;2022-10-31T14:30:15;10.68;;;3.95;;
54935;SDS011;40838;50.676;7.838;2022-10-31T14:32:43;16.60;;;3.67;;
54935;SDS011;40838;50.676;7.838;2022-10-31T14:35:16;10.82;;;3.78;;
54935;SDS011;40838;50.676;7.838;2022-10-31T14:37:54;14.13;;;4.60;;
54935;SDS011;40838;50.676;7.838;2022-10-31T14:40:35;19.27;;;4.55;;
54935;SDS011;40838;50.676;7.838;2022-10-31T14:43:33;10.10;;;3.72;;
54935;SDS011;40838;50.676;7.838;2022-10-31T14:46:35;14.63;;;4.63;;
54935;SDS011;40838;50.676;7.838;2022-10-31T14:49:16;8.60;;;4.32;;
54935;SDS011;40838;50.676;7.838;2022-10-31T14:51:54;13.15;;;4.20;;
54935;SDS011;40838;50.676;7.838;2022-10-31T14:54:25;9.25;;;4.63;;
54935;SDS011;40838;50.676;7.838;2022-10-31T14:57:04;11.15;;;3.85;;
54935;SDS011;40838;50.676;7.838;2022-10-31T14:59:35;9.68;;;4.07;;
54935;SDS011;40838;50.676;7.838;2022-10-31T15:02:16;15.52;;;4.07;;
54935;SDS011;40838;50.676;7.838;2022-10-31T15:04:48;20.30;;;4.20;;
54935;SDS011;40838;50.676;7.838;2022-10-31T15:07:20;10.02;;;4.00;;
54935;SDS011;40838;50.676;7.838;2022-10-31T15:09:55;14.65;;;4.75;;
54935;SDS011;40838;50.676;7.838;2022-10-31T15:12:25;12.43;;;3.70;;
54935;SDS011;40838;50.676;7.838;2022-10-31T15:14:54;11.38;;;3.75;;
54935;SDS011;40838;50.676;7.838;2022-10-31T15:17:23;14.15;;;3.97;;
54935;SDS011;40838;50.676;7.838;2022-10-31T15:19:53;14.15;;;3.95;;
54935;SDS011;40838;50.676;7.838;2022-10-31T15:22:23;13.70;;;4.05;;
54935;SDS011;40838;50.676;7.838;2022-10-31T15:24:55;11.43;;;4.18;;
54935;SDS011;40838;50.676;7.838;2022-10-31T15:27:22;13.27;;;3.72;;
54935;SDS011;40838;50.676;7.838;2022-10-31T15:29:51;14.75;;;3.75;;
54935;SDS011;40838;50.676;7.838;2022-10-31T15:32:20;11.25;;;3.78;;
54935;SDS011;40838;50.676;7.838;2022-10-31T15:34:49;14.77;;;3.72;;
54935;SDS011;40838;50.676;7.838;2022-10-31T15:37:17;10.20;;;4.28;;
54935;SDS011;40838;50.676;7.838;2022-10-31T15:39:46;11.98;;;3.90;;
54935;SDS011;40838;50.676;7.838;2022-10-31T15:42:17;20.77;;;4.15;;
54935;SDS011;40838;50.676;7.838;2022-10-31T15:44:49;9.20;;;3.30;;
54935;SDS011;40838;50.676;7.838;2022-10-31T15:47:20;11.23;;;3.53;;
54935;SDS011;40838;50.676;7.838;2022-10-31T15:49:50;13.32;;;3.53;;
54935;SDS011;40838;50.676;7.838;2022-10-31T15:52:24;13.07;;;3.45;;
54935;SDS011;40838;50.676;7.838;2022-10-31T15:54:55;10.40;;;3.72;;